sensor_id;sensor_type;location;lat;lon;timestamp;temperature;humidity
9157;DHT22;4613;48.392;9.998;2023-05-07T00:00:26;15.50;99.90
9157;DHT22;4613;48.392;9.998;2023-05-07T00:03:15;15.50;99.90
9157;DHT22;4613;48.392;9.998;2023-05-07T00:06:05;15.40;99.90
9157;DHT22;4613;48.392;9.998;2023-05-07T00:08:56;15.00;99.90
9157;DHT22;4613;48.392;9.998;2023-05-07T00:11:46;15.00;99.90
9157;DHT22;4613;48.392;9.998;2023-05-07T00:14:35;15.00;99.90
9157;DHT22;4613;48.392;9.998;2023-05-07T00:17:25;15.20;99.90
9157;DHT22;4613;48.392;9.998;2023-05-07T00:20:14;15.40;99.90
9157;DHT22;4613;48.392;9.998;2023-05-07T00:23:04;15.50;99.90
9157;DHT22;4613;48.392;9.998;2023-05-07T00:25:54;15.30;99.90
9157;DHT22;4613;48.392;9.998;2023-05-07T00:28:43;15.00;99.90
9157;DHT22;4613;48.392;9.998;2023-05-07T00:31:33;15.00;99.90
9157;DHT22;4613;48.392;9.998;2023-05-07T00:34:22;15.00;99.90
9157;DHT22;4613;48.392;9.998;2023-05-07T00:37:12;15.10;99.90
9157;DHT22;4613;48.392;9.998;2023-05-07T00:40:01;15.20;99.90
9157;DHT22;4613;48.392;9.998;2023-05-07T00:42:53;15.30;99.90
9157;DHT22;4613;48.392;9.998;2023-05-07T00:45:47;14.80;99.90
9157;DHT22;4613;48.392;9.998;2023-05-07T00:48:36;14.80;99.90
9157;DHT22;4613;48.392;9.998;2023-05-07T00:51:26;14.70;99.90
9157;DHT22;4613;48.392;9.998;2023-05-07T00:54:16;14.70;99.90
9157;DHT22;4613;48.392;9.998;2023-05-07T00:57:05;14.70;99.90
9157;DHT22;4613;48.392;9.998;2023-05-07T00:59:55;14.80;99.90
9157;DHT22;4613;48.392;9.998;2023-05-07T01:02:44;14.80;99.90
9157;DHT22;4613;48.392;9.998;2023-05-07T01:05:34;15.00;99.90
9157;DHT22;4613;48.392;9.998;2023-05-07T01:08:24;15.00;99.90
9157;DHT22;4613;48.392;9.998;2023-05-07T01:11:16;15.00;99.90
9157;DHT22;4613;48.392;9.998;2023-05-07T01:14:10;15.00;99.90
9157;DHT22;4613;48.392;9.998;2023-05-07T01:16:59;14.90;99.90
9157;DHT22;4613;48.392;9.998;2023-05-07T01:19:48;14.40;99.90
9157;DHT22;4613;48.392;9.998;2023-05-07T01:22:38;14.60;99.90
9157;DHT22;4613;48.392;9.998;2023-05-07T01:25:29;14.70;99.90
9157;DHT22;4613;48.392;9.998;2023-05-07T01:28:22;14.80;99.90
9157;DHT22;4613;48.392;9.998;2023-05-07T01:31:14;14.90;99.90
9157;DHT22;4613;48.392;9.998;2023-05-07T01:34:05;14.50;99.90
9157;DHT22;4613;48.392;9.998;2023-05-07T01:36:56;14.40;99.90
9157;DHT22;4613;48.392;9.998;2023-05-07T01:39:47;14.20;99.90
9157;DHT22;4613;48.392;9.998;2023-05-07T01:42:37;14.20;99.90
9157;DHT22;4613;48.392;9.998;2023-05-07T01:45:27;14.10;99.90
9157;DHT22;4613;48.392;9.998;2023-05-07T01:48:17;14.40;99.90
9157;DHT22;4613;48.392;9.998;2023-05-07T01:51:08;14.70;99.90
9157;DHT22;4613;48.392;9.998;2023-05-07T01:53:57;14.70;99.90
9157;DHT22;4613;48.392;9.998;2023-05-07T01:56:47;14.40;99.90
9157;DHT22;4613;48.392;9.998;2023-05-07T01:59:38;14.50;99.90
9157;DHT22;4613;48.392;9.998;2023-05-07T02:02:27;14.60;99.90
9157;DHT22;4613;48.392;9.998;2023-05-07T02:05:19;14.40;99.90
9157;DHT22;4613;48.392;9.998;2023-05-07T02:08:11;13.90;99.90
9157;DHT22;4613;48.392;9.998;2023-05-07T02:11:01;14.10;99.90
9157;DHT22;4613;48.392;9.998;2023-05-07T02:13:51;14.30;99.90
9157;DHT22;4613;48.392;9.998;2023-05-07T02:16:42;14.10;99.90
9157;DHT22;4613;48.392;9.998;2023-05-07T02:19:34;14.00;99.90
9157;DHT22;4613;48.392;9.998;2023-05-07T02:22:23;14.30;99.90
9157;DHT22;4613;48.392;9.998;2023-05-07T02:25:12;14.30;99.90
9157;DHT22;4613;48.392;9.998;2023-05-07T02:28:02;14.40;99.90
9157;DHT22;4613;48.392;9.998;2023-05-07T02:31:03;14.40;99.90
9157;DHT22;4613;48.392;9.998;2023-05-07T02:33:53;14.40;99.90
9157;DHT22;4613;48.392;9.998;2023-05-07T02:36:43;14.30;99.90
9157;DHT22;4613;48.392;9.998;2023-05-07T02:39:35;14.20;99.90
9157;DHT22;4613;48.392;9.998;2023-05-07T02:42:25;14.30;99.90
9157;DHT22;4613;48.392;9.998;2023-05-07T02:45:15;14.20;99.90
9157;DHT22;4613;48.392;9.998;2023-05-07T02:48:06;14.00;99.90
9157;DHT22;4613;48.392;9.998;2023-05-07T02:50:55;13.90;99.90
9157;DHT22;4613;48.392;9.998;2023-05-07T02:53:45;14.00;99.90
9157;DHT22;4613;48.392;9.998;2023-05-07T02:56:35;14.00;99.90
9157;DHT22;4613;48.392;9.998;2023-05-07T02:59:24;14.20;99.90
9157;DHT22;4613;48.392;9.998;2023-05-07T03:02:15;14.10;99.90
9157;DHT22;4613;48.392;9.998;2023-05-07T03:05:06;14.10;99.90
9157;DHT22;4613;48.392;9.998;2023-05-07T03:07:55;13.90;99.90
9157;DHT22;4613;48.392;9.998;2023-05-07T03:10:44;13.90;99.90
9157;DHT22;4613;48.392;9.998;2023-05-07T03:13:34;13.80;99.90
9157;DHT22;4613;48.392;9.998;2023-05-07T03:16:23;14.10;99.90
9157;DHT22;4613;48.392;9.998;2023-05-07T03:19:13;14.00;99.90
9157;DHT22;4613;48.392;9.998;2023-05-07T03:22:02;13.80;99.90
9157;DHT22;4613;48.392;9.998;2023-05-07T03:24:51;13.80;99.90
9157;DHT22;4613;48.392;9.998;2023-05-07T03:27:40;13.90;99.90
9157;DHT22;4613;48.392;9.998;2023-05-07T03:30:30;14.10;99.90
9157;DHT22;4613;48.392;9.998;2023-05-07T03:33:19;14.00;99.90
9157;DHT22;4613;48.392;9.998;2023-05-07T03:36:10;14.00;99.90
9157;DHT22;4613;48.392;9.998;2023-05-07T03:39:00;14.00;99.90
9157;DHT22;4613;48.392;9.998;2023-05-07T03:41:58;14.00;99.90
9157;DHT22;4613;48.392;9.998;2023-05-07T03:44:47;14.00;99.90
9157;DHT22;4613;48.392;9.998;2023-05-07T03:47:37;14.00;99.90
9157;DHT22;4613;48.392;9.998;2023-05-07T03:50:26;14.00;99.90
9157;DHT22;4613;48.392;9.998;2023-05-07T03:53:16;14.00;99.90
9157;DHT22;4613;48.392;9.998;2023-05-07T03:56:06;14.00;99.90
9157;DHT22;4613;48.392;9.998;2023-05-07T03:59:00;14.00;99.90
9157;DHT22;4613;48.392;9.998;2023-05-07T04:01:49;14.00;99.90
9157;DHT22;4613;48.392;9.998;2023-05-07T04:04:44;14.10;99.90
9157;DHT22;4613;48.392;9.998;2023-05-07T04:07:34;14.10;99.90
9157;DHT22;4613;48.392;9.998;2023-05-07T04:10:23;14.00;99.90
9157;DHT22;4613;48.392;9.998;2023-05-07T04:13:16;14.00;99.90
9157;DHT22;4613;48.392;9.998;2023-05-07T04:16:07;14.10;99.90
9157;DHT22;4613;48.392;9.998;2023-05-07T04:18:59;14.10;99.90
9157;DHT22;4613;48.392;9.998;2023-05-07T04:21:48;14.10;99.90
9157;DHT22;4613;48.392;9.998;2023-05-07T04:24:37;14.10;99.90
9157;DHT22;4613;48.392;9.998;2023-05-07T04:27:27;14.00;99.90
9157;DHT22;4613;48.392;9.998;2023-05-07T04:30:17;14.10;99.90
9157;DHT22;4613;48.392;9.998;2023-05-07T04:33:07;14.10;99.90
9157;DHT22;4613;48.392;9.998;2023-05-07T04:35:58;14.10;99.90
9157;DHT22;4613;48.392;9.998;2023-05-07T04:38:52;14.10;99.90
9157;DHT22;4613;48.392;9.998;2023-05-07T04:41:42;14.10;99.90
9157;DHT22;4613;48.392;9.998;2023-05-07T04:44:33;14.00;99.90
9157;DHT22;4613;48.392;9.998;2023-05-07T04:47:23;14.10;99.90
9157;DHT22;4613;48.392;9.998;2023-05-07T04:50:13;14.10;99.90
9157;DHT22;4613;48.392;9.998;2023-05-07T04:53:04;14.20;99.90
9157;DHT22;4613;48.392;9.998;2023-05-07T04:55:57;14.40;99.90
9157;DHT22;4613;48.392;9.998;2023-05-07T04:58:47;14.70;99.90
9157;DHT22;4613;48.392;9.998;2023-05-07T05:01:38;14.50;99.90
9157;DHT22;4613;48.392;9.998;2023-05-07T05:04:29;14.30;99.90
9157;DHT22;4613;48.392;9.998;2023-05-07T05:07:18;14.60;99.90
9157;DHT22;4613;48.392;9.998;2023-05-07T05:10:08;14.60;99.90
9157;DHT22;4613;48.392;9.998;2023-05-07T05:13:00;14.90;99.90
9157;DHT22;4613;48.392;9.998;2023-05-07T05:15:50;15.30;99.90
9157;DHT22;4613;48.392;9.998;2023-05-07T05:18:39;15.30;99.90
9157;DHT22;4613;48.392;9.998;2023-05-07T05:21:31;15.40;99.90
9157;DHT22;4613;48.392;9.998;2023-05-07T05:24:26;15.60;99.90
9157;DHT22;4613;48.392;9.998;2023-05-07T05:27:16;15.00;99.90
9157;DHT22;4613;48.392;9.998;2023-05-07T05:30:06;15.20;99.90
9157;DHT22;4613;48.392;9.998;2023-05-07T05:32:57;15.80;99.90
9157;DHT22;4613;48.392;9.998;2023-05-07T05:35:46;16.00;99.90
9157;DHT22;4613;48.392;9.998;2023-05-07T05:38:36;15.60;99.90
9157;DHT22;4613;48.392;9.998;2023-05-07T05:41:25;16.00;99.90
9157;DHT22;4613;48.392;9.998;2023-05-07T05:44:15;16.50;99.90
9157;DHT22;4613;48.392;9.998;2023-05-07T05:47:05;16.70;99.90
9157;DHT22;4613;48.392;9.998;2023-05-07T05:49:55;16.90;99.90
9157;DHT22;4613;48.392;9.998;2023-05-07T05:52:45;16.90;99.90
9157;DHT22;4613;48.392;9.998;2023-05-07T05:55:35;16.90;99.90
9157;DHT22;4613;48.392;9.998;2023-05-07T05:58:24;16.50;99.90
9157;DHT22;4613;48.392;9.998;2023-05-07T06:01:20;16.20;99.90
9157;DHT22;4613;48.392;9.998;2023-05-07T06:04:11;16.70;99.90
9157;DHT22;4613;48.392;9.998;2023-05-07T06:07:00;17.20;99.90
9157;DHT22;4613;48.392;9.998;2023-05-07T06:12:41;17.10;99.90
9157;DHT22;4613;48.392;9.998;2023-05-07T06:15:31;16.50;99.90
9157;DHT22;4613;48.392;9.998;2023-05-07T06:18:25;17.10;99.90
9157;DHT22;4613;48.392;9.998;2023-05-07T06:21:14;17.10;99.90
9157;DHT22;4613;48.392;9.998;2023-05-07T06:24:04;17.40;99.90
9157;DHT22;4613;48.392;9.998;2023-05-07T06:26:54;18.00;99.90
9157;DHT22;4613;48.392;9.998;2023-05-07T06:29:43;18.00;99.90
9157;DHT22;4613;48.392;9.998;2023-05-07T06:32:37;18.20;99.90
9157;DHT22;4613;48.392;9.998;2023-05-07T06:35:28;18.60;99.90
9157;DHT22;4613;48.392;9.998;2023-05-07T06:38:18;18.70;99.90
9157;DHT22;4613;48.392;9.998;2023-05-07T06:41:09;18.80;99.90
9157;DHT22;4613;48.392;9.998;2023-05-07T06:44:02;18.60;99.90
9157;DHT22;4613;48.392;9.998;2023-05-07T06:47:01;18.70;99.90
9157;DHT22;4613;48.392;9.998;2023-05-07T06:49:50;18.30;99.90
9157;DHT22;4613;48.392;9.998;2023-05-07T06:52:42;18.30;99.90
9157;DHT22;4613;48.392;9.998;2023-05-07T06:55:33;18.30;99.90
9157;DHT22;4613;48.392;9.998;2023-05-07T06:58:23;18.70;99.90
9157;DHT22;4613;48.392;9.998;2023-05-07T07:01:12;18.90;99.90
9157;DHT22;4613;48.392;9.998;2023-05-07T07:04:02;19.20;99.90
9157;DHT22;4613;48.392;9.998;2023-05-07T07:06:53;18.90;99.90
9157;DHT22;4613;48.392;9.998;2023-05-07T07:09:43;18.50;99.90
9157;DHT22;4613;48.392;9.998;2023-05-07T07:12:33;18.80;99.90
9157;DHT22;4613;48.392;9.998;2023-05-07T07:15:24;18.80;99.90
9157;DHT22;4613;48.392;9.998;2023-05-07T07:18:14;19.50;99.90
9157;DHT22;4613;48.392;9.998;2023-05-07T07:21:05;19.40;99.90
9157;DHT22;4613;48.392;9.998;2023-05-07T07:23:54;19.10;99.90
9157;DHT22;4613;48.392;9.998;2023-05-07T07:26:44;19.70;99.90
9157;DHT22;4613;48.392;9.998;2023-05-07T07:29:33;19.40;99.90
9157;DHT22;4613;48.392;9.998;2023-05-07T07:32:23;19.10;99.90
9157;DHT22;4613;48.392;9.998;2023-05-07T07:35:12;19.20;99.90
9157;DHT22;4613;48.392;9.998;2023-05-07T07:38:02;19.70;99.90
9157;DHT22;4613;48.392;9.998;2023-05-07T07:40:52;18.90;99.90
9157;DHT22;4613;48.392;9.998;2023-05-07T07:43:42;18.60;99.90
9157;DHT22;4613;48.392;9.998;2023-05-07T07:46:31;19.20;99.90
9157;DHT22;4613;48.392;9.998;2023-05-07T07:49:20;19.30;99.90
9157;DHT22;4613;48.392;9.998;2023-05-07T07:52:10;19.70;99.90
9157;DHT22;4613;48.392;9.998;2023-05-07T07:55:01;19.70;99.90
9157;DHT22;4613;48.392;9.998;2023-05-07T07:57:51;20.50;99.90
9157;DHT22;4613;48.392;9.998;2023-05-07T08:00:40;20.50;99.90
9157;DHT22;4613;48.392;9.998;2023-05-07T08:03:30;20.50;99.90
9157;DHT22;4613;48.392;9.998;2023-05-07T08:06:22;20.50;99.90
9157;DHT22;4613;48.392;9.998;2023-05-07T08:09:11;20.70;99.90
9157;DHT22;4613;48.392;9.998;2023-05-07T08:12:03;20.70;99.90
9157;DHT22;4613;48.392;9.998;2023-05-07T08:14:55;20.70;99.90
9157;DHT22;4613;48.392;9.998;2023-05-07T08:17:45;20.70;99.90
9157;DHT22;4613;48.392;9.998;2023-05-07T08:20:35;20.50;99.90
9157;DHT22;4613;48.392;9.998;2023-05-07T08:23:28;19.50;99.90
9157;DHT22;4613;48.392;9.998;2023-05-07T08:26:19;20.40;99.90
9157;DHT22;4613;48.392;9.998;2023-05-07T08:29:10;20.70;99.90
9157;DHT22;4613;48.392;9.998;2023-05-07T08:31:59;21.00;99.90
9157;DHT22;4613;48.392;9.998;2023-05-07T08:34:49;21.20;99.90
9157;DHT22;4613;48.392;9.998;2023-05-07T08:37:38;21.10;99.90
9157;DHT22;4613;48.392;9.998;2023-05-07T08:40:29;21.60;99.90
9157;DHT22;4613;48.392;9.998;2023-05-07T08:43:23;21.40;99.90
9157;DHT22;4613;48.392;9.998;2023-05-07T08:46:22;21.40;99.90
9157;DHT22;4613;48.392;9.998;2023-05-07T08:49:13;21.00;99.90
9157;DHT22;4613;48.392;9.998;2023-05-07T08:52:05;20.70;99.90
9157;DHT22;4613;48.392;9.998;2023-05-07T08:54:55;21.40;99.90
9157;DHT22;4613;48.392;9.998;2023-05-07T08:57:47;20.70;99.90
9157;DHT22;4613;48.392;9.998;2023-05-07T09:00:38;21.70;99.90
9157;DHT22;4613;48.392;9.998;2023-05-07T09:03:30;22.20;99.90
9157;DHT22;4613;48.392;9.998;2023-05-07T09:06:21;22.40;99.90
9157;DHT22;4613;48.392;9.998;2023-05-07T09:09:14;22.70;99.90
9157;DHT22;4613;48.392;9.998;2023-05-07T09:12:06;23.00;99.90
9157;DHT22;4613;48.392;9.998;2023-05-07T09:14:57;23.40;99.90
9157;DHT22;4613;48.392;9.998;2023-05-07T09:17:47;23.20;99.90
9157;DHT22;4613;48.392;9.998;2023-05-07T09:20:37;22.70;99.90
9157;DHT22;4613;48.392;9.998;2023-05-07T09:23:27;23.10;99.90
9157;DHT22;4613;48.392;9.998;2023-05-07T09:26:17;23.40;99.90
9157;DHT22;4613;48.392;9.998;2023-05-07T09:29:08;23.30;99.90
9157;DHT22;4613;48.392;9.998;2023-05-07T09:31:59;23.00;99.90
9157;DHT22;4613;48.392;9.998;2023-05-07T09:34:48;23.50;99.90
9157;DHT22;4613;48.392;9.998;2023-05-07T09:37:40;23.40;99.90
9157;DHT22;4613;48.392;9.998;2023-05-07T09:40:30;23.90;99.90
9157;DHT22;4613;48.392;9.998;2023-05-07T09:43:24;23.50;99.90
9157;DHT22;4613;48.392;9.998;2023-05-07T09:46:25;22.10;99.90
9157;DHT22;4613;48.392;9.998;2023-05-07T09:49:21;22.70;99.90
9157;DHT22;4613;48.392;9.998;2023-05-07T09:52:13;23.80;99.90
9157;DHT22;4613;48.392;9.998;2023-05-07T09:55:09;24.10;99.90
9157;DHT22;4613;48.392;9.998;2023-05-07T09:57:59;23.70;99.90
9157;DHT22;4613;48.392;9.998;2023-05-07T10:00:51;22.50;99.90
9157;DHT22;4613;48.392;9.998;2023-05-07T10:03:43;22.40;99.90
9157;DHT22;4613;48.392;9.998;2023-05-07T10:06:34;22.70;99.90
9157;DHT22;4613;48.392;9.998;2023-05-07T10:09:25;23.40;99.90
9157;DHT22;4613;48.392;9.998;2023-05-07T10:12:16;23.30;99.90
9157;DHT22;4613;48.392;9.998;2023-05-07T10:15:10;23.40;99.90
9157;DHT22;4613;48.392;9.998;2023-05-07T10:18:03;23.70;99.90
9157;DHT22;4613;48.392;9.998;2023-05-07T10:20:53;23.20;99.90
9157;DHT22;4613;48.392;9.998;2023-05-07T10:24:43;23.70;99.90
9157;DHT22;4613;48.392;9.998;2023-05-07T10:27:11;22.90;99.90
9157;DHT22;4613;48.392;9.998;2023-05-07T10:32:59;23.80;99.90
9157;DHT22;4613;48.392;9.998;2023-05-07T10:35:58;22.80;99.90
9157;DHT22;4613;48.392;9.998;2023-05-07T10:38:49;23.30;99.90
9157;DHT22;4613;48.392;9.998;2023-05-07T10:41:39;23.40;99.90
9157;DHT22;4613;48.392;9.998;2023-05-07T10:44:29;22.40;99.90
9157;DHT22;4613;48.392;9.998;2023-05-07T10:47:23;22.60;99.90
9157;DHT22;4613;48.392;9.998;2023-05-07T11:02:11;22.60;99.90
9157;DHT22;4613;48.392;9.998;2023-05-07T11:05:23;22.90;99.90
9157;DHT22;4613;48.392;9.998;2023-05-07T11:11:49;23.20;99.90
9157;DHT22;4613;48.392;9.998;2023-05-07T11:17:59;23.30;99.90
9157;DHT22;4613;48.392;9.998;2023-05-07T11:20:55;23.60;99.90
9157;DHT22;4613;48.392;9.998;2023-05-07T11:24:08;23.60;99.90
9157;DHT22;4613;48.392;9.998;2023-05-07T11:27:06;24.10;99.90
9157;DHT22;4613;48.392;9.998;2023-05-07T11:29:56;23.30;99.90
9157;DHT22;4613;48.392;9.998;2023-05-07T11:32:48;23.60;99.90
9157;DHT22;4613;48.392;9.998;2023-05-07T11:35:39;23.70;99.90
9157;DHT22;4613;48.392;9.998;2023-05-07T11:38:36;23.70;99.90
9157;DHT22;4613;48.392;9.998;2023-05-07T11:41:36;23.70;99.90
9157;DHT22;4613;48.392;9.998;2023-05-07T11:44:44;24.00;99.90
9157;DHT22;4613;48.392;9.998;2023-05-07T11:47:35;23.50;99.90
9157;DHT22;4613;48.392;9.998;2023-05-07T11:50:24;23.50;99.90
9157;DHT22;4613;48.392;9.998;2023-05-07T11:53:14;23.20;99.90
9157;DHT22;4613;48.392;9.998;2023-05-07T11:56:11;23.50;99.90
9157;DHT22;4613;48.392;9.998;2023-05-07T11:59:00;23.70;99.90
9157;DHT22;4613;48.392;9.998;2023-05-07T12:01:49;23.40;99.90
9157;DHT22;4613;48.392;9.998;2023-05-07T12:04:39;23.20;99.90
9157;DHT22;4613;48.392;9.998;2023-05-07T12:07:28;23.40;99.90
9157;DHT22;4613;48.392;9.998;2023-05-07T12:10:20;23.30;99.90
9157;DHT22;4613;48.392;9.998;2023-05-07T12:13:21;23.30;99.90
9157;DHT22;4613;48.392;9.998;2023-05-07T12:16:10;22.90;99.90
9157;DHT22;4613;48.392;9.998;2023-05-07T12:19:00;22.80;99.90
9157;DHT22;4613;48.392;9.998;2023-05-07T12:21:49;22.70;99.90
9157;DHT22;4613;48.392;9.998;2023-05-07T12:24:57;22.80;99.90
9157;DHT22;4613;48.392;9.998;2023-05-07T12:27:51;22.90;99.90
9157;DHT22;4613;48.392;9.998;2023-05-07T12:30:42;22.80;99.90
9157;DHT22;4613;48.392;9.998;2023-05-07T12:33:32;22.90;99.90
9157;DHT22;4613;48.392;9.998;2023-05-07T12:36:22;22.90;99.90
9157;DHT22;4613;48.392;9.998;2023-05-07T12:39:11;22.80;99.90
9157;DHT22;4613;48.392;9.998;2023-05-07T12:42:00;22.90;99.90
9157;DHT22;4613;48.392;9.998;2023-05-07T12:44:50;22.50;99.90
9157;DHT22;4613;48.392;9.998;2023-05-07T12:47:46;22.50;99.90
9157;DHT22;4613;48.392;9.998;2023-05-07T12:50:35;23.00;99.90
9157;DHT22;4613;48.392;9.998;2023-05-07T12:53:27;23.00;99.70
9157;DHT22;4613;48.392;9.998;2023-05-07T12:56:16;22.90;99.90
9157;DHT22;4613;48.392;9.998;2023-05-07T12:59:05;23.00;99.70
9157;DHT22;4613;48.392;9.998;2023-05-07T13:01:55;22.90;99.90
9157;DHT22;4613;48.392;9.998;2023-05-07T13:04:44;23.00;99.60
9157;DHT22;4613;48.392;9.998;2023-05-07T13:07:34;23.00;99.30
9157;DHT22;4613;48.392;9.998;2023-05-07T13:10:23;22.70;99.30
9157;DHT22;4613;48.392;9.998;2023-05-07T13:13:13;22.70;99.70
9157;DHT22;4613;48.392;9.998;2023-05-07T13:16:03;22.90;99.40
9157;DHT22;4613;48.392;9.998;2023-05-07T13:18:53;23.00;99.40
9157;DHT22;4613;48.392;9.998;2023-05-07T13:21:43;22.70;99.70
9157;DHT22;4613;48.392;9.998;2023-05-07T13:24:32;22.80;99.40
9157;DHT22;4613;48.392;9.998;2023-05-07T13:27:22;22.90;99.00
9157;DHT22;4613;48.392;9.998;2023-05-07T13:30:11;22.70;99.00
9157;DHT22;4613;48.392;9.998;2023-05-07T13:33:01;22.60;98.60
9157;DHT22;4613;48.392;9.998;2023-05-07T13:35:50;22.60;98.90
9157;DHT22;4613;48.392;9.998;2023-05-07T13:38:40;22.70;98.70
9157;DHT22;4613;48.392;9.998;2023-05-07T13:41:29;22.70;98.40
9157;DHT22;4613;48.392;9.998;2023-05-07T13:44:19;22.70;98.40
9157;DHT22;4613;48.392;9.998;2023-05-07T13:47:11;22.50;99.10
9157;DHT22;4613;48.392;9.998;2023-05-07T13:50:03;22.60;98.60
9157;DHT22;4613;48.392;9.998;2023-05-07T13:52:53;22.80;98.40
9157;DHT22;4613;48.392;9.998;2023-05-07T13:55:42;22.70;98.20
9157;DHT22;4613;48.392;9.998;2023-05-07T13:58:32;22.60;98.20
9157;DHT22;4613;48.392;9.998;2023-05-07T14:01:21;22.70;98.50
9157;DHT22;4613;48.392;9.998;2023-05-07T14:04:11;22.70;98.50
9157;DHT22;4613;48.392;9.998;2023-05-07T14:07:01;22.50;98.70
9157;DHT22;4613;48.392;9.998;2023-05-07T14:09:52;22.50;98.90
9157;DHT22;4613;48.392;9.998;2023-05-07T14:12:41;22.60;99.50
9157;DHT22;4613;48.392;9.998;2023-05-07T14:15:30;22.70;99.10
9157;DHT22;4613;48.392;9.998;2023-05-07T14:18:21;22.60;98.80
9157;DHT22;4613;48.392;9.998;2023-05-07T14:21:10;22.60;98.90
9157;DHT22;4613;48.392;9.998;2023-05-07T14:23:59;22.50;98.90
9157;DHT22;4613;48.392;9.998;2023-05-07T14:26:49;22.50;99.00
9157;DHT22;4613;48.392;9.998;2023-05-07T14:29:38;22.50;99.00
9157;DHT22;4613;48.392;9.998;2023-05-07T14:32:30;22.50;98.90
9157;DHT22;4613;48.392;9.998;2023-05-07T14:35:19;22.50;98.80
9157;DHT22;4613;48.392;9.998;2023-05-07T14:38:08;22.30;98.60
9157;DHT22;4613;48.392;9.998;2023-05-07T14:40:58;22.20;98.90
9157;DHT22;4613;48.392;9.998;2023-05-07T14:43:48;22.20;99.00
9157;DHT22;4613;48.392;9.998;2023-05-07T14:46:40;22.20;99.00
9157;DHT22;4613;48.392;9.998;2023-05-07T14:49:29;22.10;99.20
9157;DHT22;4613;48.392;9.998;2023-05-07T14:52:19;21.90;99.30
9157;DHT22;4613;48.392;9.998;2023-05-07T14:55:08;21.80;99.30
9157;DHT22;4613;48.392;9.998;2023-05-07T14:57:58;21.90;99.20
9157;DHT22;4613;48.392;9.998;2023-05-07T15:01:08;21.80;99.20
9157;DHT22;4613;48.392;9.998;2023-05-07T15:03:58;21.90;99.20
9157;DHT22;4613;48.392;9.998;2023-05-07T15:06:46;21.80;99.30
9157;DHT22;4613;48.392;9.998;2023-05-07T15:09:36;21.80;99.40
9157;DHT22;4613;48.392;9.998;2023-05-07T15:12:25;21.80;99.50
9157;DHT22;4613;48.392;9.998;2023-05-07T15:15:14;21.70;99.60
9157;DHT22;4613;48.392;9.998;2023-05-07T15:18:04;21.60;99.60
9157;DHT22;4613;48.392;9.998;2023-05-07T15:20:55;21.60;99.80
9157;DHT22;4613;48.392;9.998;2023-05-07T15:23:44;21.50;99.90
9157;DHT22;4613;48.392;9.998;2023-05-07T15:26:34;21.50;99.90
9157;DHT22;4613;48.392;9.998;2023-05-07T15:29:23;21.50;99.90
9157;DHT22;4613;48.392;9.998;2023-05-07T15:32:13;21.40;99.90
9157;DHT22;4613;48.392;9.998;2023-05-07T15:35:03;21.30;99.90
9157;DHT22;4613;48.392;9.998;2023-05-07T15:37:52;21.30;99.90
9157;DHT22;4613;48.392;9.998;2023-05-07T15:40:42;21.10;99.90
9157;DHT22;4613;48.392;9.998;2023-05-07T15:43:31;21.20;99.90
9157;DHT22;4613;48.392;9.998;2023-05-07T15:46:23;21.10;99.90
9157;DHT22;4613;48.392;9.998;2023-05-07T15:49:13;21.20;99.90
9157;DHT22;4613;48.392;9.998;2023-05-07T15:52:02;21.10;99.90
9157;DHT22;4613;48.392;9.998;2023-05-07T15:54:52;20.90;99.90
9157;DHT22;4613;48.392;9.998;2023-05-07T15:57:41;20.10;99.90
9157;DHT22;4613;48.392;9.998;2023-05-07T16:00:31;20.00;99.90
9157;DHT22;4613;48.392;9.998;2023-05-07T16:03:21;19.40;99.90
9157;DHT22;4613;48.392;9.998;2023-05-07T16:06:11;19.00;99.90
9157;DHT22;4613;48.392;9.998;2023-05-07T16:09:00;19.10;99.90
9157;DHT22;4613;48.392;9.998;2023-05-07T16:11:50;18.70;99.90
9157;DHT22;4613;48.392;9.998;2023-05-07T16:14:39;18.50;99.90
9157;DHT22;4613;48.392;9.998;2023-05-07T16:17:29;18.00;99.90
9157;DHT22;4613;48.392;9.998;2023-05-07T16:20:18;18.10;99.90
9157;DHT22;4613;48.392;9.998;2023-05-07T16:23:10;17.50;99.90
9157;DHT22;4613;48.392;9.998;2023-05-07T16:26:01;17.00;99.90
9157;DHT22;4613;48.392;9.998;2023-05-07T16:28:50;17.20;99.90
9157;DHT22;4613;48.392;9.998;2023-05-07T16:31:40;16.50;99.90
9157;DHT22;4613;48.392;9.998;2023-05-07T16:34:29;16.90;99.90
9157;DHT22;4613;48.392;9.998;2023-05-07T16:37:19;16.70;99.90
9157;DHT22;4613;48.392;9.998;2023-05-07T16:40:09;16.60;99.90
9157;DHT22;4613;48.392;9.998;2023-05-07T16:42:59;16.50;99.90
9157;DHT22;4613;48.392;9.998;2023-05-07T16:45:48;17.00;99.90
9157;DHT22;4613;48.392;9.998;2023-05-07T16:48:38;17.10;99.90
9157;DHT22;4613;48.392;9.998;2023-05-07T16:51:27;17.20;99.90
9157;DHT22;4613;48.392;9.998;2023-05-07T16:54:17;17.20;99.90
9157;DHT22;4613;48.392;9.998;2023-05-07T16:57:06;17.20;99.90
9157;DHT22;4613;48.392;9.998;2023-05-07T16:59:56;17.20;99.90
9157;DHT22;4613;48.392;9.998;2023-05-07T17:02:47;17.20;99.90
9157;DHT22;4613;48.392;9.998;2023-05-07T17:05:36;17.30;99.90
9157;DHT22;4613;48.392;9.998;2023-05-07T17:08:27;17.40;99.90
9157;DHT22;4613;48.392;9.998;2023-05-07T17:11:16;17.40;99.90
9157;DHT22;4613;48.392;9.998;2023-05-07T17:14:05;17.20;99.90
9157;DHT22;4613;48.392;9.998;2023-05-07T17:16:56;17.30;99.90
9157;DHT22;4613;48.392;9.998;2023-05-07T17:19:45;17.40;99.90
9157;DHT22;4613;48.392;9.998;2023-05-07T17:22:34;17.50;99.90
9157;DHT22;4613;48.392;9.998;2023-05-07T17:25:24;17.50;99.90
9157;DHT22;4613;48.392;9.998;2023-05-07T17:28:14;17.30;99.90
9157;DHT22;4613;48.392;9.998;2023-05-07T17:31:03;17.20;99.90
9157;DHT22;4613;48.392;9.998;2023-05-07T17:33:53;17.10;99.90
9157;DHT22;4613;48.392;9.998;2023-05-07T17:36:42;17.00;99.90
9157;DHT22;4613;48.392;9.998;2023-05-07T17:39:32;16.90;99.90
9157;DHT22;4613;48.392;9.998;2023-05-07T17:42:21;16.70;99.90
9157;DHT22;4613;48.392;9.998;2023-05-07T17:45:11;16.90;99.90
9157;DHT22;4613;48.392;9.998;2023-05-07T17:48:01;16.70;99.90
9157;DHT22;4613;48.392;9.998;2023-05-07T17:50:51;16.40;99.90
9157;DHT22;4613;48.392;9.998;2023-05-07T17:53:41;16.30;99.90
9157;DHT22;4613;48.392;9.998;2023-05-07T17:56:31;15.90;99.90
9157;DHT22;4613;48.392;9.998;2023-05-07T17:59:20;15.90;99.90
9157;DHT22;4613;48.392;9.998;2023-05-07T18:02:09;15.60;99.90
9157;DHT22;4613;48.392;9.998;2023-05-07T18:04:59;15.60;99.90
9157;DHT22;4613;48.392;9.998;2023-05-07T18:07:48;15.60;99.90
9157;DHT22;4613;48.392;9.998;2023-05-07T18:10:38;15.70;99.90
9157;DHT22;4613;48.392;9.998;2023-05-07T18:13:27;15.50;99.90
9157;DHT22;4613;48.392;9.998;2023-05-07T18:16:16;15.40;99.90
9157;DHT22;4613;48.392;9.998;2023-05-07T18:19:07;15.60;99.90
9157;DHT22;4613;48.392;9.998;2023-05-07T18:21:56;15.80;99.90
9157;DHT22;4613;48.392;9.998;2023-05-07T18:24:47;15.70;99.90
9157;DHT22;4613;48.392;9.998;2023-05-07T18:27:37;15.70;99.90
9157;DHT22;4613;48.392;9.998;2023-05-07T18:30:26;15.40;99.90
9157;DHT22;4613;48.392;9.998;2023-05-07T18:33:15;15.50;99.90
9157;DHT22;4613;48.392;9.998;2023-05-07T18:36:05;15.50;99.90
9157;DHT22;4613;48.392;9.998;2023-05-07T18:38:55;15.70;99.90
9157;DHT22;4613;48.392;9.998;2023-05-07T18:41:45;16.00;99.90
9157;DHT22;4613;48.392;9.998;2023-05-07T18:44:36;16.00;99.90
9157;DHT22;4613;48.392;9.998;2023-05-07T18:47:26;16.00;99.90
9157;DHT22;4613;48.392;9.998;2023-05-07T18:50:15;16.00;99.90
9157;DHT22;4613;48.392;9.998;2023-05-07T18:53:05;16.00;99.90
9157;DHT22;4613;48.392;9.998;2023-05-07T18:55:54;15.90;99.90
9157;DHT22;4613;48.392;9.998;2023-05-07T18:58:44;15.80;99.90